Aviation Digital Data Service (ADDS)

Output produced by METARs form (0638 UTC 24 March 2019)
found at http://www.aviationweather.gov/metar/data/
 
MMAA 240543Z 00000KT 6SM SKC 25/22 A2996 RMK SLP146 52023 912 HZY
TAF MMAA 240441Z 2406/2512 00000KT 6SM HZ SKC TX31/2418Z TN22/2412Z 
     FM241800 24010KT 6SM HZ SKC 
     FM250400 23005KT 6SM HZ SKC
       
MMAS 240541Z 19002KT 10SM SKC 16/M12 A3028 RMK SLP115
TAF MMAS 240451Z 2406/2506 17005KT P6SM SKC 
     FM241800 20010KT P6SM SKC 
     FM250200 18005KT P6SM SKC
       
MMSL 240440Z 00000KT 7SM SKC 19/15 A3007
TAF MMSL 240455Z 2406/2506 30005KT P6SM SKC 
     FM241700 16010KT P6SM SKC 
     FM250300 30005KT P6SM SKC
       
MMSD 240545Z 26004KT 12SM SKC 18/10 A3005 RMK SLP162 52007 952
TAF MMSD 240455Z 2406/2506 30005KT P6SM SKC 
     FM241700 12012KT P6SM SKC 
     FM250200 30005KT P6SM SKC
       
MMCP 240548Z 10010KT 7SM SKC 24/15 A3005
TAF MMCP 240502Z 2406/2506 10008KT P6SM SKC 
     FM241800 35010G20KT P6SM SCT020 
     FM250100 03008KT P6SM SKC
       
MMUN 240544Z 09005KT 7SM SKC 21/15 A3010 RMK SLP193 56011 900 AC
TAF MMUN 240502Z 2406/2512 06005KT 6SM HZ SKC TX28/2421Z TN15/2412Z 
     FM241000 06005KT 6SM HZ SCT015 
     FM241700 08010KT 6SM HZ BKN015 BKN100 
     TEMPO 2421/2501 6SM TSRA BKN010CB 
     FM250300 08010KT 6SM HZ SCT015 BKN080 BKN200
       
MMCM 240458Z RTD 09005KT 7SM SCT020 24/18 A3007 RMK 8/500 RTS
TAF MMCM 240502Z 2406/2506 08005KT P6SM SCT020 
     FM241800 08012KT P6SM SCT020 
     FM250200 08005KT P6SM SCT020
       
MMCU 240344Z 00000KT 10SM SKC 16/M07 A3010
TAF MMCU 240514Z 2406/2506 00000KT P6SM SKC 
     FM241800 08010KT P6SM SCT200 
     FM250400 08005KT P6SM SKC
       
MMCE 240440Z 04011KT 7SM SKC 26/22 A3002 RMK HZY
TAF MMCE 240502Z 2406/2506 06008KT P6SM SKC 
     FM241000 12015KT P6SM SKC 
     FM241600 36010KT P6SM SKC 
     FM250200 06008KT P6SM SCT015
       
MMCS 240243Z 00000KT 10SM SKC 18/M08 A3005 RMK SLP118 52006 911
TAF MMCS 240514Z 2406/2506 00000KT P6SM SKC 
     FM241800 20015KT P6SM BKN200 
     FM250400 24008KT P6SM SCT200
       
MMCN 240140Z 29004KT 10SM SKC 19/10 A2997 RMK CI N
TAF MMCN 240455Z 2406/2506 33005KT P6SM SKC 
     FM241800 26010KT P6SM SCT250 
     FM250200 30005KT P6SM SKC
       
MMCV 240157Z 09010KT 10SM SKC 23/17 A3000 RMK HZY
TAF MMCV 240513Z 2406/2506 08005KT P6SM SCT020 
     TEMPO 2410/2414 BKN015 
     FM241600 13015KT P6SM SCT030 
     FM250200 13005KT P6SM SCT020
       
MMIA 240140Z 00000KT 8SM SKC 25/15 A3003 RMK 6////
TAF MMIA 240451Z 2406/2506 00000KT P6SM SKC 
     FM241800 24010KT P6SM SCT020 
     FM250200 00000KT P6SM SKC
       
MMCZ 240545Z 12003KT 7SM SKC 18/15 A3008 RMK SLP192 57005 902
TAF MMCZ 240502Z 2406/2512 00000KT 6SM HZ SKC 
     FM241800 08010KT 6SM HZ SCT020 SCT080 
     TEMPO 2421/2501 6SM -TSRA BKN010CB 
     FM250300 08005KT 6SM HZ SCT015 BKN300
       
MMCB 240348Z 02003KT 10SM SKC 22/05 A3013
TAF MMCB 240446Z 2406/2506 03005KT P6SM SKC 
     FM241800 18010KT P6SM SKC 
     FM250200 00000KT P6SM SKC
       
MMCL 240440Z 00000KT 10SM SKC 19/14 A3000 RMK HZY
TAF MMCL 240455Z 2406/2506 00000KT P6SM SKC 
     FM241800 28010KT P6SM SKC 
     FM250400 24005KT P6SM SKC
       
MMDO 240242Z 21009KT 7SM SKC 18/M03 A3023 RMK SLP134 52024 907
TAF MMDO 240455Z 2406/2506 20005KT P6SM SKC 
     FM241800 23010KT P6SM SKC 
     FM250200 20005KT P6SM SKC
       
MMGL 240540Z 24004KT 10SM SKC 18/07 A3023 RMK SLP126 52014 912
TAF MMGL 240448Z 2406/2512 26005KT P6SM SKC TX28/2421Z TN12/2412Z 
     FM241800 23010KT P6SM SKC 
     FM250400 23005KT P6SM SKC
       
MMGM 240141Z 23012KT 10SM SKC 20/14 A2994
TAF MMGM 240455Z 2406/2506 23005KT P6SM SKC 
     FM241800 26010KT P6SM SKC 
     FM250200 23005KT P6SM SKC
       
MMHO 240543Z 00000KT 10SM SKC 17/05 A3006 RMK SLP179 52012 902 HZY
TAF MMHO 240455Z 2406/2506 00000KT P6SM SKC 
     FM241900 23010KT P6SM SKC 
     FM250300 23005KT P6SM SKC
       
MMBT 240056Z 00000KT 7SM OVC030CB 22/20 A2995 RMK 8/300
TAF MMBT 240446Z 2406/2506 00000KT P6SM SCT030 
     FM241800 22010KT P6SM SCT020 
     FM250200 00000KT P6SM SCT020
       
MMLP 240540Z 19004KT 10SM SKC 14/09 A3007 RMK SLP184 52011 952
TAF MMLP 240455Z 2406/2506 16005KT P6SM SKC 
     FM241800 33010KT P6SM SKC 
     FM250300 33005KT 6SM HZ SKC
       
MMLO 240542Z 00000KT 8SM SKC 14/M03 A3031 RMK SLP140 52006 911
TAF MMLO 240451Z 2406/2506 06005KT P6SM SKC 
     FM241800 16010KT P6SM SCT020 
     FM250200 06005KT P6SM SCT020
       
MMLT 240147Z 04007KT 10SM SKC 20/15 A3000 RMK HZY
TAF MMLT 240455Z 2406/2506 03005KT P6SM SKC 
     FM241700 03012KT P6SM SKC 
     FM250200 03005KT P6SM SKC
       
MMLM 240343Z 31009KT 10SM SKC 18/13 A3002
TAF MMLM 240455Z 2406/2506 30005KT P6SM SKC 
     FM241800 30012KT P6SM SKC 
     FM250200 30005KT P6SM SKC
       
MMZO 240146Z 27008KT 12SM SKC 25/21 A2992
TAF MMZO 240448Z 2406/2506 00000KT P6SM SKC 
     FM241800 24010KT P6SM SKC 
     FM250300 23005KT 6SM HZ SKC
       
MMMA 240040Z 13010KT 8SM SCT020 OVC030 23/19 A3002 RMK 8/8// BINOVC
TAF MMMA 240513Z 2406/2506 13005KT P6SM SCT020 
     FM240900 12005KT 5SM HZ BKN015 
     FM241500 13015KT P6SM SCT020 
     FM241800 13010G20KT P6SM SCT020 
     FM250200 13005KT P6SM SCT020
       
MMMZ 240555Z 29003KT 10SM SKC 15/09 A2999 RMK SLP105 52007 902
TAF MMMZ 240455Z 2406/2512 00000KT P6SM SKC TX30/2420Z TN10/2412Z 
     FM241800 24010KT P6SM SKC 
     FM250400 23005KT P6SM SKC
       
MMMD 240544Z 08007KT 7SM SKC 22/13 A3009 RMK SLP183 52003 966
TAF MMMD 240502Z 2406/2512 08005KT 6SM HZ SKC TX32/2421Z TN20/2412Z 
     FM241200 08005KT 6SM HZ SCT020 
     FM241600 08010KT 6SM HZ BKN020 
     FM242100 03015KT 6SM HZ SCT030 BKN080 
     FM250300 03010KT 6SM HZ SKC
       
MMML 240541Z 27007KT 10SM FEW200 19/00 A3003 RMK SLP169 52010 963 8/008
TAF MMML 240455Z 2406/2506 12005KT P6SM SCT200 
     FM241900 29010KT P6SM SCT200 
     FM250400 13005KT 6SM HZ SCT200
       
MMMX 240545Z 36005KT 10SM FEW025 17/04 A3037 NOSIG RMK SLP097 52010 951 8/500
TAF MMMX 240441Z 2406/2512 10005KT P6SM SCT025 TX25/2421Z TN11/2512Z 
     TEMPO 2406/2410 BKN025 
     FM241000 06005KT 6SM HZ SKC 
     FM241800 08010KT P6SM SCT025 
     TEMPO 2423/2503 BKN025 
     FM250400 08005KT 6SM HZ SKC
       
MMTO 240546Z 00000KT 7SM FEW070 09/M03 A3044 RMK SLP118 52008 906 8/030 HZY
TAF MMTO 240441Z 2406/2512 32005KT 5SM HZ SKC TX24/2421Z TN03/2412Z 
     TEMPO 2412/2415 2SM HZ 
     FM241800 16010KT 6SM HZ SCT020 
     FM250400 15005KT 6SM HZ SKC
       
MMMT 240146Z 02010KT 7SM SCT040 24/22 A2994 RMK 8/100
TAF MMMT 240502Z 2406/2506 03005KT P6SM SCT030 
     TEMPO 2410/2414 BKN030 
     FM241700 36010KT P6SM SCT030 
     FM250200 03005KT P6SM SCT020
       
TAF MMMV 240514Z 2406/2506 00000KT 6SM HZ SKC 
     TEMPO 2412/2415 BKN010 
     FM241800 13012KT P6SM SKC 
     FM250300 13005KT 6SM HZ SKC
       
MMAN 240540Z 12009KT 6SM SCT020 19/17 A3008 RMK SLP/// 5//// 9// 8/500 HZY
TAF MMAN 240514Z 2406/2506 12005KT 6SM HZ SCT020 
     FM240800 00000KT 5SM HZ BKN015 
     TEMPO 2411/2415 3SM BR OVC010 
     BECMG 2415/2416 6SM HZ SCT020 
     FM241800 13012KT P6SM SCT030 
     FM250300 13005KT 6SM HZ SCT015
       
MMMY 240541Z 07005KT 10SM BKN015 20/18 A3003 RMK SLP/// 5//// 9// 8/500
TAF MMMY 240514Z 2406/2512 10005KT P6SM SCT020 TX28/2421Z TN16/2412Z 
     FM240900 13005KT 5SM HZ BKN015 
     TEMPO 2411/2415 3SM BR OVC010 
     FM241600 13005KT 5SM HZ SCT020 
     FM241800 13012KT P6SM SCT030 
     FM250400 13005KT 6SM HZ SCT015
       
MMMM 240550Z 00000KT 7SM SKC 14/02 A3028 RMK SLP124 52017 908 SC AC
TAF MMMM 240448Z 2406/2512 22005KT 6SM HZ SKC 
     FM241800 23010KT P6SM SCT030 
     FM250200 23005KT 6SM HZ SKC
       
MMNL 240042Z 12008KT 10SM SCT200 27/16 A2995 RMK 8/002
TAF MMNL 240513Z 2406/2506 12005KT P6SM SCT015 
     FM240900 12005KT 3SM BR OVC010 
     FM241500 13010KT P6SM SCT020 
     FM250200 13005KT 6SM HZ SCT015
       
MMOX 240143Z 15007KT 7SM SCT120 19/10 A3025 RMK 8/030
TAF MMOX 240446Z 2406/2506 16005KT P6SM SCT100 
     FM241000 20010KT P6SM BKN020 
     PROB40 2421/2501 5SM TSRA BKN020CB 
     FM250200 03005KT P6SM SCT020 SCT100
       
MMPG 240040Z 05008KT 10SM SCT060 24/16 A2999 RMK 8/500 HZY
TAF MMPG 240513Z 2406/2506 08005KT P6SM SKC 
     FM240900 00000KT 3SM BR HZ OVC010 
     FM241600 08010KT 5SM HZ BKN015 
     FM241900 08010KT P6SM SCT020 
     FM250200 08005KT 6SM HZ SCT012
       
MMPA 240040Z 10006KT 7SM SKC 25/20 A2995 RMK HZY
TAF MMPA 240513Z 2406/2506 10005KT P6SM SCT015 
     TEMPO 2411/2415 2SM BR HZ OVC010 
     FM241600 08008KT 5SM HZ BKN020 
     FM250100 08005KT 4SM HZ SCT015
       
MMPB 240144Z 15005KT 10SM SKC 10/00 A3030 RMK HZY SC
TAF MMPB 240446Z 2406/2506 16005KT P6SM SKC 
     FM241800 16010KT P6SM SCT020 
     FM250200 16005KT P6SM SCT020
       
MMPS 240041Z 00000KT 10SM FEW010 28/23 A3000 RMK 8/100 HZY
TAF MMPS 240446Z 2406/2506 03005KT P6SM SCT010 
     FM241800 20010KT P6SM SCT020 
     FM250200 03005KT P6SM SCT020
       
MMPR 240544Z 04004KT 12SM SKC 21/19 A2999 RMK SLP153 52005 900
TAF MMPR 240448Z 2406/2512 00000KT P6SM SKC TX28/2419Z TN20/2412Z 
     FM241800 20010KT P6SM SKC 
     FM250300 24005KT P6SM SKC
       
MMQT 240543Z 09005KT 6SM SKC 14/08 A3035 RMK HZY
TAF MMQT 240451Z 2406/2506 08005KT P6SM SKC 
     FM241800 13010KT P6SM SCT030 
     FM250200 13005KT P6SM SKC
       
MMRX 240144Z 13006KT 10SM SKC 22/17 A3003
TAF MMRX 240513Z 2406/2506 13005KT P6SM SKC 
     FM240900 12005KT 5SM HZ BKN015 
     FM241500 13015KT P6SM SCT020 
     FM241800 13015G25KT P6SM SCT020 
     FM250100 13008KT P6SM SCT015
       
MMIO 240140Z 36008KT 10SM SKC 17/10 A3015 RMK SC
TAF MMIO 240514Z 2406/2506 02005KT 6SM HZ SCT015 
     TEMPO 2411/2415 BKN010 
     FM241800 03010KT P6SM SKC 
     FM250400 03005KT 6SM HZ SKC
       
MMSP 240540Z 00000KT 10SM SKC 14/09 A3026 RMK SLP117 52027 900
TAF MMSP 240448Z 2406/2512 25005KT P6SM SKC TX29/2421Z TN10/2412Z 
     FM240900 00000KT 5SM HZ BKN010 
     TEMPO 2411/2415 3SM BR OVC010 
     FM241600 13005KT 6SM HZ SCT015 
     FM241800 13010KT P6SM SKC 
     FM250300 13005KT 6SM HZ SKC
       
MMTM 240446Z E07006KT 7SM SKC 21/21 A3007 RMK BR
TAF MMTM 240441Z 2406/2506 00000KT 6SM HZ SCT010 
     BECMG 2408/2409 5SM BR BKN010 
     FM241000 14005KT 3SM BR OVC010 
     TEMPO 2411/2415 1SM BR OVC005 
     FM241600 13005KT 5SM HZ BKN015 
     FM241800 14015KT 6SM HZ SCT015 
     FM250400 15005KT 6SM HZ BKN015
       
MMTP 240545Z 00000KT 9SM SCT015 BKN110 26/23 A2996 RMK SLP168 52007 908 8/460
TAF MMTP 240502Z 2406/2512 22005KT P6SM SCT015 BKN100 
     FM241800 23010KT P6SM SCT020 BKN200 
     FM250300 23005KT 6SM HZ SCT100
       
MMEP 240045Z 33007KT 12SM SKC 23/13 A3007
TAF MMEP 240451Z 2406/2506 00000KT P6SM SKC 
     FM241700 36008KT P6SM SKC 
     FM250200 03005KT P6SM SKC
       
MMTJ 240545Z 36006KT 7SM BKN018 OVC200 13/11 A3020 RMK SLP226 51008 957 8/508 HZY
TAF MMTJ 240455Z 2406/2512 35005KT 6SM HZ BKN015 OVC200 TX19/2421Z TN08/2412Z 
     TEMPO 2406/2410 OVC015 
     FM241000 33005KT 4SM HZ BKN015 OVC200 
     TEMPO 2410/2414 BKN010 
     FM241800 33010KT 6SM HZ SCT020 BKN200 
     FM250300 33005KT 6SM HZ SCT015 BKN200
       
MMTC 240343Z 00000KT 10SM SKC 23/M01 A3005
TAF MMTC 240514Z 2406/2506 00000KT P6SM SKC 
     FM242000 08010KT P6SM SKC 
     FM250400 00000KT P6SM SKC
       
MMTG 240448Z 20004KT 8SM SKC 25/18 A3004
TAF MMTG 240502Z 2406/2506 00000KT 6SM HZ SKC 
     TEMPO 2412/2415 3SM BR SCT010 
     FM241800 33010KT 6SM HZ SCT025 
     FM250300 33005KT 6SM HZ SKC
       
MMPN 240048Z 00000KT 12SM SKC 24/07 A3016 RMK HZY SC
TAF MMPN 240451Z 2406/2506 00000KT P6SM SKC 
     FM241800 18010KT P6SM SKC 
     FM250100 00000KT P6SM SKC
       
MMVR 240443Z 00000KT 6SM SCT010 BKN080 22/22 A3006 RMK 8/130 HZY
TAF MMVR 240441Z 2406/2506 05005KT 6SM HZ SCT010 BKN080 TX30/2421Z TN21/2412Z 
     TEMPO 2412/2415 3SM BR BKN010 
     FM241800 08010KT 6SM HZ SCT020 
     FM250300 08005KT 6SM HZ SCT015
       
MMVA 240247Z 04009KT 7SM SKC 24/21 A3000 RMK SLP156 52017 967
TAF MMVA 240502Z 2406/2506 03005KT 6SM HZ SKC 
     TEMPO 2410/2414 BKN010 
     FM241700 06010KT P6SM SCT020 
     FM250300 06005KT 5SM HZ SCT015
       
MMZC 240544Z 00000KT 8SM SKC 15/M08 A3027
TAF MMZC 240448Z 2406/2512 00000KT 6SM HZ SKC TX23/2422Z TN06/2412Z 
     FM241800 20010KT P6SM SKC 
     FM250400 20005KT 6SM HZ SKC
       
MMZH 240243Z 29003KT 7SM SKC 26/22 A2993 RMK SLP130 52024 900 HZY
TAF MMZH 240446Z 2406/2506 00000KT P6SM SKC 
     FM241800 23010KT P6SM SKC 
     FM250200 00000KT 6SM HZ SKC